createdAt,value
2022-11-01T00:02:19.100Z,14.63
2022-11-01T00:04:46.641Z,12.93
2022-11-01T00:07:14.127Z,13.47
2022-11-01T00:09:41.542Z,15.07
2022-11-01T00:12:08.963Z,12.70
2022-11-01T00:14:36.746Z,14.53
2022-11-01T00:17:04.460Z,10.80
2022-11-01T00:19:31.978Z,16.43
2022-11-01T00:21:59.424Z,13.80
2022-11-01T00:24:27.084Z,9.97
2022-11-01T00:26:54.585Z,9.93
2022-11-01T00:29:22.033Z,11.77
2022-11-01T00:31:49.750Z,11.73
2022-11-01T00:34:18.033Z,8.70
2022-11-01T00:36:45.479Z,10.37
2022-11-01T00:39:16.753Z,12.93
2022-11-01T00:41:44.186Z,10.07
2022-11-01T00:44:11.693Z,7.87
2022-11-01T00:46:40.432Z,6.77
2022-11-01T00:49:07.851Z,9.77
2022-11-01T00:51:35.283Z,10.97
2022-11-01T00:54:02.747Z,6.97
2022-11-01T00:56:30.232Z,8.33
2022-11-01T00:58:57.665Z,8.90
2022-11-01T01:01:25.319Z,9.90
2022-11-01T01:03:52.837Z,7.67
2022-11-01T01:06:20.511Z,8.57
2022-11-01T01:08:47.900Z,10.87
2022-11-01T01:11:15.889Z,10.80
2022-11-01T01:13:43.471Z,7.70
2022-11-01T01:16:13.050Z,9.03
2022-11-01T01:18:40.770Z,6.37
2022-11-01T01:21:08.594Z,12.57
2022-11-01T01:23:37.187Z,7.87
2022-11-01T01:26:09.704Z,7.27
2022-11-01T01:28:41.878Z,8.50
2022-11-01T01:31:14.177Z,12.60
2022-11-01T01:33:41.745Z,6.27
2022-11-01T01:36:09.436Z,13.67
2022-11-01T01:38:37.133Z,9.40
2022-11-01T01:41:24.129Z,9.83
2022-11-01T01:43:51.600Z,8.53
2022-11-01T01:46:19.074Z,10.47
2022-11-01T01:48:52.510Z,12.33
2022-11-01T01:51:26.048Z,24.00
2022-11-01T01:53:55.975Z,34.23
2022-11-01T01:56:43.724Z,32.43
2022-11-01T01:59:11.767Z,32.53
2022-11-01T02:01:41.974Z,26.83
2022-11-01T02:04:22.416Z,18.07
2022-11-01T02:06:50.293Z,13.83
2022-11-01T02:09:19.058Z,12.20
2022-11-01T02:11:47.318Z,13.27
2022-11-01T02:14:15.434Z,10.83
2022-11-01T02:17:06.883Z,8.13
2022-11-01T02:20:20.958Z,8.97
2022-11-01T02:23:28.443Z,7.57
2022-11-01T02:26:22.924Z,8.53
2022-11-01T02:29:39.650Z,8.20
2022-11-01T02:32:25.104Z,9.33
2022-11-01T02:35:36.666Z,10.73
2022-11-01T02:38:19.346Z,11.70
2022-11-01T02:41:17.116Z,12.17
2022-11-01T02:44:00.531Z,10.27
2022-11-01T02:46:55.817Z,8.77
2022-11-01T02:49:26.795Z,8.57
2022-11-01T02:51:57.016Z,7.17
2022-11-01T02:54:33.362Z,11.63
2022-11-01T02:57:20.875Z,5.37
2022-11-01T02:59:49.627Z,8.10
2022-11-01T03:02:41.082Z,8.07
2022-11-01T03:05:20.248Z,5.00
2022-11-01T03:08:00.224Z,8.37
2022-11-01T03:10:53.440Z,9.63
2022-11-01T03:13:56.740Z,8.57
2022-11-01T03:16:36.653Z,7.57
2022-11-01T03:19:26.415Z,13.60
2022-11-01T03:22:23.909Z,8.10
2022-11-01T03:24:56.813Z,7.17
2022-11-01T03:27:32.678Z,17.90
2022-11-01T03:30:07.205Z,62.63
2022-11-01T03:32:45.957Z,35.77
2022-11-01T03:35:25.785Z,33.70
2022-11-01T03:37:59.252Z,23.53
2022-11-01T03:40:29.596Z,24.43
2022-11-01T03:43:05.375Z,16.50
2022-11-01T03:45:37.720Z,12.53
2022-11-01T03:48:06.553Z,17.90
2022-11-01T03:50:34.978Z,8.83
2022-11-01T03:53:02.822Z,14.07
2022-11-01T03:55:30.271Z,19.13
2022-11-01T03:58:00.436Z,12.27
2022-11-01T04:00:36.651Z,13.10
2022-11-01T04:03:04.507Z,20.07
2022-11-01T04:05:34.180Z,27.23
2022-11-01T04:08:06.066Z,24.37
2022-11-01T04:10:34.083Z,27.10
2022-11-01T04:13:02.215Z,39.60
2022-11-01T04:15:48.996Z,44.63
2022-11-01T04:18:42.881Z,33.67
2022-11-01T04:21:14.332Z,26.73
2022-11-01T04:23:43.096Z,25.30
2022-11-01T04:26:19.340Z,27.07
2022-11-01T04:28:57.234Z,26.63
2022-11-01T04:31:36.966Z,23.03
2022-11-01T04:34:05.954Z,20.03
2022-11-01T04:36:33.400Z,15.10
2022-11-01T04:39:00.893Z,22.17
2022-11-01T04:41:30.177Z,28.20
2022-11-01T04:43:59.964Z,16.73
2022-11-01T04:46:32.063Z,25.57
2022-11-01T04:49:00.084Z,20.33
2022-11-01T04:51:27.698Z,25.47
2022-11-01T04:53:55.256Z,36.13
2022-11-01T04:56:22.654Z,39.33
2022-11-01T04:58:50.066Z,37.07
2022-11-01T05:01:17.913Z,40.20
2022-11-01T05:03:45.423Z,38.13
2022-11-01T05:06:12.890Z,34.37
2022-11-01T05:08:40.339Z,33.50
2022-11-01T05:11:07.816Z,47.80
2022-11-01T05:13:36.056Z,47.10
2022-11-01T05:16:21.000Z,64.67
2022-11-01T05:18:51.542Z,41.17
2022-11-01T05:21:19.053Z,40.47
2022-11-01T05:23:49.157Z,50.13
2022-11-01T05:26:17.332Z,48.70
2022-11-01T05:28:44.785Z,56.97
2022-11-01T05:31:12.399Z,43.73
2022-11-01T05:33:39.826Z,36.63
2022-11-01T05:36:07.703Z,32.30
2022-11-01T05:38:35.171Z,31.30
2022-11-01T05:41:04.433Z,38.57
2022-11-01T05:43:31.946Z,161.63
2022-11-01T05:46:02.831Z,36.90
2022-11-01T05:48:30.419Z,28.17
2022-11-01T05:50:57.819Z,28.20
2022-11-01T05:53:25.418Z,26.57
2022-11-01T05:55:55.760Z,27.07
2022-11-01T05:58:26.511Z,28.03
2022-11-01T06:01:06.537Z,42.70
2022-11-01T06:03:36.256Z,24.90
2022-11-01T06:06:04.281Z,22.50
2022-11-01T06:08:32.662Z,25.07
2022-11-01T06:11:04.852Z,50.37
2022-11-01T06:13:33.574Z,54.70
2022-11-01T06:16:05.129Z,75.17
2022-11-01T06:18:35.668Z,48.70
2022-11-01T06:21:03.113Z,38.27
2022-11-01T06:23:30.626Z,23.17
2022-11-01T06:26:03.801Z,18.80
2022-11-01T06:28:33.383Z,25.33
2022-11-01T06:31:03.372Z,18.57
2022-11-01T06:33:32.418Z,16.63
2022-11-01T06:36:01.567Z,32.50
2022-11-01T06:38:29.129Z,24.00
2022-11-01T06:40:58.300Z,23.40
2022-11-01T06:43:25.825Z,50.27
2022-11-01T06:45:53.420Z,58.17
2022-11-01T06:48:20.901Z,58.60
2022-11-01T06:50:48.355Z,32.97
2022-11-01T06:53:15.812Z,21.00
2022-11-01T06:55:43.291Z,20.40
2022-11-01T06:58:10.760Z,24.47
2022-11-01T07:00:38.230Z,20.60
2022-11-01T07:03:13.359Z,17.57
2022-11-01T07:05:41.743Z,17.53
2022-11-01T07:08:13.009Z,15.17
2022-11-01T07:10:43.166Z,10.07
2022-11-01T07:13:13.646Z,13.20
2022-11-01T07:15:42.333Z,9.20
2022-11-01T07:18:10.455Z,12.37
2022-11-01T07:20:42.127Z,12.03
2022-11-01T07:23:14.351Z,27.40
2022-11-01T07:25:42.546Z,9.43
2022-11-01T07:28:10.799Z,12.43
2022-11-01T07:30:39.300Z,13.93
2022-11-01T07:33:07.169Z,9.57
2022-11-01T07:35:35.674Z,14.60
2022-11-01T07:38:06.424Z,13.47
2022-11-01T07:40:40.301Z,10.27
2022-11-01T07:43:09.863Z,13.13
2022-11-01T07:45:37.469Z,26.63
2022-11-01T07:48:17.043Z,10.83
2022-11-01T07:50:48.088Z,10.30
2022-11-01T07:53:19.409Z,22.80
2022-11-01T07:55:47.473Z,19.80
2022-11-01T07:58:20.765Z,18.90
2022-11-01T08:00:48.298Z,15.97
2022-11-01T08:03:19.520Z,11.83
2022-11-01T08:05:48.696Z,15.57
2022-11-01T08:08:16.836Z,19.13
2022-11-01T08:10:46.304Z,16.97
2022-11-01T08:13:19.335Z,14.70
2022-11-01T08:15:49.193Z,11.30
2022-11-01T08:18:20.262Z,11.87
2022-11-01T08:20:47.926Z,15.23
2022-11-01T08:23:15.689Z,19.63
2022-11-01T08:25:43.462Z,20.93
2022-11-01T08:28:17.692Z,18.43
2022-11-01T08:30:49.072Z,17.17
2022-11-01T08:33:16.630Z,10.43
2022-11-01T08:35:50.133Z,16.83
2022-11-01T08:38:20.149Z,18.53
2022-11-01T08:40:48.299Z,18.43
2022-11-01T08:43:16.022Z,19.47
2022-11-01T08:45:43.473Z,15.93
2022-11-01T08:48:11.402Z,12.90
2022-11-01T08:50:39.320Z,16.57
2022-11-01T08:53:12.946Z,12.80
2022-11-01T08:55:41.676Z,14.57
2022-11-01T08:58:09.920Z,8.27
2022-11-01T09:00:38.003Z,14.95
2022-11-01T09:03:05.675Z,14.07
2022-11-01T09:05:33.290Z,14.52
2022-11-01T09:08:01.996Z,14.20
2022-11-01T09:10:32.985Z,13.80
2022-11-01T09:13:01.786Z,12.43
2022-11-01T09:15:31.163Z,15.20
2022-11-01T09:17:58.732Z,16.17
2022-11-01T09:20:28.251Z,17.05
2022-11-01T09:22:55.725Z,32.28
2022-11-01T09:25:23.196Z,17.45
2022-11-01T09:27:50.663Z,11.10
2022-11-01T09:30:18.430Z,60.72
2022-11-01T09:32:46.125Z,33.65
2022-11-01T09:35:13.545Z,11.13
2022-11-01T09:37:41.047Z,32.42
2022-11-01T09:40:11.327Z,14.82
2022-11-01T09:43:03.393Z,10.73
2022-11-01T09:45:34.976Z,15.32
2022-11-01T09:48:13.670Z,14.48
2022-11-01T09:50:43.851Z,13.40
2022-11-01T09:53:30.514Z,10.63
2022-11-01T09:56:10.391Z,9.30
2022-11-01T09:59:04.892Z,11.43
2022-11-01T10:01:41.195Z,14.43
2022-11-01T10:04:45.994Z,10.70
2022-11-01T10:07:52.566Z,8.23
2022-11-01T10:10:44.248Z,7.80
2022-11-01T10:13:49.921Z,6.78
2022-11-01T10:16:42.093Z,10.60
2022-11-01T10:19:19.005Z,9.32
2022-11-01T10:21:50.693Z,6.05
2022-11-01T10:24:41.520Z,10.05
2022-11-01T10:27:40.978Z,10.48
2022-11-01T10:30:17.336Z,10.27
2022-11-01T10:32:55.743Z,8.10
2022-11-01T10:35:41.308Z,6.85
2022-11-01T10:38:59.169Z,9.30
2022-11-01T10:41:52.373Z,7.35
2022-11-01T10:44:33.878Z,9.10
2022-11-01T10:47:07.181Z,6.32
2022-11-01T10:52:45.447Z,8.85
2022-11-01T10:55:25.225Z,12.95
2022-11-01T10:58:05.481Z,7.75
2022-11-01T11:00:38.280Z,9.60
2022-11-01T11:03:27.958Z,9.00
2022-11-01T11:05:59.455Z,9.82
2022-11-01T11:08:27.471Z,10.90
2022-11-01T11:11:01.694Z,27.98
2022-11-01T11:13:50.513Z,8.02
2022-11-01T11:16:47.230Z,5.80
2022-11-01T11:19:26.332Z,6.45
2022-11-01T11:21:56.060Z,9.15
2022-11-01T11:24:39.362Z,9.05
2022-11-01T11:27:33.587Z,8.15
2022-11-01T11:30:05.683Z,9.18
2022-11-01T11:32:35.967Z,8.55
2022-11-01T11:35:14.985Z,9.85
2022-11-01T11:37:59.731Z,7.18
2022-11-01T11:40:42.376Z,11.02
2022-11-01T11:43:30.423Z,11.38
2022-11-01T11:46:36.804Z,8.85
2022-11-01T11:49:07.289Z,19.08
2022-11-01T11:51:39.439Z,8.73
2022-11-01T11:54:24.778Z,6.38
2022-11-01T11:57:10.120Z,8.60
2022-11-01T11:59:38.585Z,6.00
2022-11-01T12:02:40.999Z,10.40
2022-11-01T12:05:17.212Z,10.52
2022-11-01T12:07:56.923Z,8.18
2022-11-01T12:10:46.771Z,6.65
2022-11-01T12:13:37.622Z,11.25
2022-11-01T12:16:25.079Z,5.03
2022-11-01T12:19:01.703Z,5.72
2022-11-01T12:21:35.952Z,8.30
2022-11-01T12:24:34.309Z,13.80
2022-11-01T12:27:10.303Z,14.32
2022-11-01T12:29:57.894Z,10.35
2022-11-01T12:32:54.128Z,8.52
2022-11-01T12:35:33.160Z,8.45
2022-11-01T12:38:09.907Z,5.70
2022-11-01T12:40:39.254Z,7.97
2022-11-01T12:43:49.711Z,13.90
2022-11-01T12:46:34.677Z,7.90
2022-11-01T12:50:05.236Z,8.50
2022-11-01T12:52:44.856Z,11.23
2022-11-01T12:55:35.182Z,11.23
2022-11-01T12:58:04.158Z,12.98
2022-11-01T13:01:13.513Z,6.07
2022-11-01T13:03:48.055Z,10.75
2022-11-01T13:06:59.954Z,9.15
2022-11-01T13:10:07.197Z,7.18
2022-11-01T13:13:27.700Z,8.30
2022-11-01T13:16:27.966Z,30.55
2022-11-01T13:19:23.380Z,12.15
2022-11-01T13:21:56.486Z,6.53
2022-11-01T13:24:32.069Z,7.82
2022-11-01T13:27:19.819Z,10.07
2022-11-01T13:30:15.841Z,10.98
2022-11-01T13:33:02.137Z,9.70
2022-11-01T13:35:53.272Z,11.68
2022-11-01T13:38:40.585Z,9.77
2022-11-01T13:41:35.340Z,17.30
2022-11-01T13:44:20.982Z,7.53
2022-11-01T13:47:23.479Z,8.50
2022-11-01T13:50:25.909Z,14.50
2022-11-01T13:53:04.841Z,7.28
2022-11-01T13:55:43.886Z,9.50
2022-11-01T13:58:22.075Z,17.88
2022-11-01T14:00:55.684Z,21.90
2022-11-01T14:03:25.889Z,12.45
2022-11-01T14:09:25.998Z,9.43
2022-11-01T14:12:31.900Z,12.45
2022-11-01T14:15:27.840Z,10.20
2022-11-01T14:18:07.462Z,11.65
2022-11-01T14:20:44.562Z,26.83
2022-11-01T14:23:30.213Z,9.05
2022-11-01T14:26:20.010Z,8.85
2022-11-01T14:28:51.477Z,11.95
2022-11-01T14:31:24.635Z,29.80
2022-11-01T14:33:59.881Z,14.38
2022-11-01T14:36:33.063Z,31.85
2022-11-01T14:39:40.106Z,13.05
2022-11-01T14:42:13.326Z,27.27
2022-11-01T14:44:49.738Z,15.70
2022-11-01T14:47:39.719Z,13.05
2022-11-01T14:51:03.742Z,11.27
2022-11-01T14:53:38.450Z,6.25
2022-11-01T14:56:27.388Z,8.35
2022-11-01T14:59:22.186Z,9.82
2022-11-01T15:01:59.488Z,9.75
2022-11-01T15:04:33.591Z,9.45
2022-11-01T15:07:02.266Z,7.40
2022-11-01T15:09:31.934Z,15.85
2022-11-01T15:12:11.278Z,13.77
2022-11-01T15:14:47.319Z,21.85
2022-11-01T15:17:30.668Z,16.70
2022-11-01T15:19:59.984Z,6.40
2022-11-01T15:22:31.414Z,9.07
2022-11-01T15:25:03.572Z,11.85
2022-11-01T15:27:44.298Z,14.75
2022-11-01T15:30:20.495Z,18.65
2022-11-01T15:32:54.033Z,15.55
2022-11-01T15:35:26.576Z,11.45
2022-11-01T15:37:55.442Z,16.58
2022-11-01T15:40:37.376Z,12.00
2022-11-01T15:43:05.370Z,14.68
2022-11-01T15:45:36.974Z,12.73
2022-11-01T15:48:14.823Z,20.58
2022-11-01T15:50:50.149Z,22.35
2022-11-01T15:53:24.797Z,17.77
2022-11-01T15:56:24.593Z,18.13
2022-11-01T16:01:29.052Z,19.35
2022-11-01T16:04:10.592Z,14.60
2022-11-01T16:06:47.304Z,22.67
2022-11-01T16:09:45.908Z,31.17
2022-11-01T16:12:25.843Z,28.33
2022-11-01T16:15:06.370Z,33.15
2022-11-01T16:18:01.836Z,35.10
2022-11-01T16:20:41.355Z,34.03
2022-11-01T16:23:15.558Z,34.25
2022-11-01T16:25:43.399Z,21.77
2022-11-01T16:28:13.767Z,28.88
2022-11-01T16:30:51.178Z,39.70
2022-11-01T16:33:35.396Z,26.50
2022-11-01T16:36:34.352Z,34.38
2022-11-01T16:39:02.022Z,28.73
2022-11-01T16:41:38.085Z,25.27
2022-11-01T16:44:16.327Z,34.50
2022-11-01T16:46:44.375Z,16.42
2022-11-01T16:49:14.697Z,42.13
2022-11-01T16:51:42.491Z,51.55
2022-11-01T16:54:10.658Z,48.58
2022-11-01T16:56:51.715Z,39.72
2022-11-01T16:59:34.347Z,37.83
2022-11-01T17:02:22.116Z,28.13
2022-11-01T17:05:19.520Z,29.57
2022-11-01T17:07:48.206Z,35.95
2022-11-01T17:10:22.443Z,28.20
2022-11-01T17:12:54.173Z,21.15
2022-11-01T17:15:21.734Z,20.53
2022-11-01T17:17:49.852Z,18.13
2022-11-01T17:23:27.244Z,24.23
2022-11-01T17:25:57.645Z,17.10
2022-11-01T17:28:25.224Z,13.97
2022-11-01T17:30:53.336Z,16.20
2022-11-01T17:33:22.058Z,22.47
2022-11-01T17:35:49.779Z,17.03
2022-11-01T17:38:30.278Z,14.33
2022-11-01T17:41:00.955Z,10.43
2022-11-01T17:43:29.856Z,12.33
2022-11-01T17:46:00.147Z,12.20
2022-11-01T17:48:27.635Z,14.27
2022-11-01T17:51:01.709Z,13.00
2022-11-01T17:53:31.614Z,15.07
2022-11-01T17:56:00.378Z,17.40
2022-11-01T17:58:30.120Z,9.47
2022-11-01T18:01:00.666Z,10.60
2022-11-01T18:03:28.710Z,12.10
2022-11-01T18:06:02.262Z,10.77
2022-11-01T18:08:35.229Z,10.10
2022-11-01T18:11:22.890Z,10.73
2022-11-01T18:14:26.694Z,11.37
2022-11-01T18:17:11.358Z,11.47
2022-11-01T18:20:11.288Z,12.67
2022-11-01T18:22:57.982Z,13.33
2022-11-01T18:25:49.797Z,18.47
2022-11-01T18:28:24.837Z,17.80
2022-11-01T18:31:35.314Z,20.07
2022-11-01T18:35:04.252Z,26.47
2022-11-01T18:38:26.058Z,28.87
2022-11-01T18:41:03.117Z,30.37
2022-11-01T18:43:56.906Z,25.13
2022-11-01T18:46:33.277Z,17.53
2022-11-01T18:49:06.016Z,24.80
2022-11-01T18:51:36.870Z,37.17
2022-11-01T18:54:33.112Z,32.30
2022-11-01T18:57:12.499Z,30.17
2022-11-01T18:59:41.703Z,25.70
2022-11-01T19:02:11.967Z,34.50
2022-11-01T19:04:49.157Z,32.20
2022-11-01T19:07:35.151Z,54.87
2022-11-01T19:10:22.257Z,36.93
2022-11-01T19:12:56.911Z,45.93
2022-11-01T19:15:26.008Z,39.70
2022-11-01T19:17:58.892Z,29.50
2022-11-01T19:20:39.141Z,30.30
2022-11-01T19:23:20.899Z,30.10
2022-11-01T19:25:51.859Z,24.10
2022-11-01T19:28:40.660Z,24.87
2022-11-01T19:31:32.787Z,15.27
2022-11-01T19:34:08.054Z,21.47
2022-11-01T19:36:41.286Z,21.83
2022-11-01T19:39:24.890Z,17.47
2022-11-01T19:41:54.595Z,23.63
2022-11-01T19:44:26.749Z,16.20
2022-11-01T19:47:25.327Z,17.23
2022-11-01T19:49:53.548Z,15.83
2022-11-01T19:52:30.643Z,14.40
2022-11-01T19:54:59.471Z,15.23
2022-11-01T19:57:44.855Z,19.10
2022-11-01T20:00:16.388Z,19.57
2022-11-01T20:02:48.997Z,18.67
2022-11-01T20:05:56.784Z,28.90
2022-11-01T20:08:36.319Z,29.33
2022-11-01T20:11:03.882Z,33.67
2022-11-01T20:13:32.481Z,23.77
2022-11-01T20:16:00.507Z,19.20
2022-11-01T20:18:28.021Z,15.57
2022-11-01T20:20:56.530Z,24.03
2022-11-01T20:23:26.694Z,16.03
2022-11-01T20:25:55.872Z,11.13
2022-11-01T20:28:23.761Z,18.27
2022-11-01T20:30:51.507Z,17.43
2022-11-01T20:33:19.838Z,11.90
2022-11-01T20:35:49.464Z,10.30
2022-11-01T20:38:17.166Z,18.70
2022-11-01T20:40:47.099Z,18.80
2022-11-01T20:43:14.831Z,16.13
2022-11-01T20:45:43.234Z,16.27
2022-11-01T20:48:10.751Z,28.73
2022-11-01T20:50:41.596Z,10.03
2022-11-01T20:53:09.926Z,17.50
2022-11-01T20:55:38.716Z,12.40
2022-11-01T20:58:06.590Z,8.97
2022-11-01T21:00:35.985Z,14.33
2022-11-01T21:03:21.937Z,9.33
2022-11-01T21:05:51.097Z,9.70
2022-11-01T21:08:33.583Z,13.73
2022-11-01T21:11:06.415Z,10.10
2022-11-01T21:13:46.129Z,8.70
2022-11-01T21:16:30.728Z,10.13
2022-11-01T21:19:04.072Z,11.03
2022-11-01T21:21:45.323Z,13.27
2022-11-01T21:24:34.764Z,11.23
2022-11-01T21:27:26.682Z,12.37
2022-11-01T21:30:14.350Z,13.47
2022-11-01T21:32:45.021Z,10.70
2022-11-01T21:35:38.501Z,10.17
2022-11-01T21:38:36.217Z,24.07
2022-11-01T21:41:31.687Z,30.00
2022-11-01T21:44:20.949Z,19.43
2022-11-01T21:47:13.884Z,22.73
2022-11-01T21:49:41.651Z,46.70
2022-11-01T21:54:48.133Z,40.90
2022-11-01T21:57:17.088Z,38.27
2022-11-01T21:59:44.879Z,36.73
2022-11-01T22:02:15.167Z,40.77
2022-11-01T22:04:44.024Z,29.23
2022-11-01T22:07:13.123Z,32.23
2022-11-01T22:09:40.960Z,24.27
2022-11-01T22:12:08.621Z,29.33
2022-11-01T22:14:37.433Z,18.43
2022-11-01T22:17:04.997Z,12.90
2022-11-01T22:19:32.421Z,22.93
2022-11-01T22:21:59.834Z,16.73
2022-11-01T22:24:27.370Z,10.27
2022-11-01T22:26:54.948Z,17.87
2022-11-01T22:29:22.356Z,19.70
2022-11-01T22:31:49.809Z,19.13
2022-11-01T22:34:17.464Z,27.77
2022-11-01T22:36:44.917Z,21.63
2022-11-01T22:39:22.971Z,19.80
2022-11-01T22:41:50.630Z,19.33
2022-11-01T22:44:27.540Z,18.23
2022-11-01T22:47:00.525Z,16.50
2022-11-01T22:49:50.579Z,16.37
2022-11-01T22:52:39.321Z,17.60
2022-11-01T22:55:19.148Z,18.73
2022-11-01T22:58:24.242Z,14.50
2022-11-01T23:00:51.831Z,19.67
2022-11-01T23:03:28.870Z,16.03
2022-11-01T23:06:00.353Z,17.33
2022-11-01T23:08:33.175Z,19.63
2022-11-01T23:11:01.800Z,19.33
2022-11-01T23:13:55.839Z,18.60
2022-11-01T23:16:36.626Z,22.13
2022-11-01T23:19:11.783Z,18.60
2022-11-01T23:21:39.627Z,19.50
2022-11-01T23:24:08.680Z,27.10
2022-11-01T23:26:36.128Z,31.83
2022-11-01T23:29:03.679Z,30.73
2022-11-01T23:31:31.382Z,24.30
2022-11-01T23:33:58.814Z,26.67
2022-11-01T23:36:29.355Z,27.30
2022-11-01T23:41:38.255Z,24.57
2022-11-01T23:44:20.776Z,35.40
2022-11-01T23:46:52.962Z,21.90
2022-11-01T23:49:25.421Z,18.90
2022-11-01T23:51:53.235Z,25.00
2022-11-01T23:54:36.478Z,21.37
2022-11-01T23:57:03.985Z,15.47
2022-11-01T23:59:31.765Z,18.43
